Airfield :
LOGIN :

Register | Disclaimer

   EN    FR    IT 

 










Legend :    VFR   Marginal VFR   IFR   Intensive IFR   Very Intensive IFR
Visi :
Ceiling :
>= 8 km
>= 3000ft
5 to 8 km
1000 to 3000 ft
1500m to 5 km
500 to 1000 ft
800 to 1500m
200 to 500 ft
< 800m
< 200 ft
Symbols :   Thunderstorms  Fog  Heavy snow  Heavy precipitations  Wind > 20 kt
SIGMETs :     Misc.  Thunderstorms  Icing  Turbulence  Mountain Waves  Volcanic Ashes






- Airport Elevation : 44 ft
- IATA code : SOU


EGHI - Southampton

CURRENT METAR :
  • 171850Z 04001KT 9999 MIFG NSC 01/00 Q1039

EXPIRED METARs :
  • 171820Z 03002KT CAVOK 03/01 Q1039
  • 171750Z 00000KT CAVOK 03/01 Q1039
  • 171720Z 01001KT CAVOK 04/03 Q1039
  • 171650Z 00000KT CAVOK 05/03 Q1039
  • 171620Z 02002KT CAVOK 06/03 Q1039
  • 171550Z 04002KT CAVOK 08/03 Q1038

TAF TAF EGHI
Valid from the 17 at 18:00 until the 17 at 23:00 UTC


171659Z 1718/1723 VRB02KT 9999 FEW030
TEMPO 1718/1723 5000 BR
PROB30
TEMPO 1721/1723 0300 FG VV///
ATIS : +44 23 8062 7103



MET'MAP, your aeronautical weather chart ! - Copyright ORBIFLY December 2007 - Disclaimer

ORBIFLY MET'MAP TEAM :

Programming & Development : Alexandra Zaïnal
Concept & original design : Baudouin d'Aumeries
Assistance for programming : Marc-Olivier Méhu
Technical & hardware support : Manuel Goepfert

Contact : metmap@orbifly.com




SOURCES & CREDITS :

   NOAA